sensor_id;sensor_type;location;lat;lon;timestamp;P1;durP1;ratioP1;P2;durP2;ratioP2
29728;SDS011;20055;51.498;11.960;2023-09-12T00:02:15;24.92;;;8.85;;
29728;SDS011;20055;51.498;11.960;2023-09-12T00:04:41;26.00;;;8.50;;
29728;SDS011;20055;51.498;11.960;2023-09-12T00:07:07;25.15;;;8.85;;
29728;SDS011;20055;51.498;11.960;2023-09-12T00:09:34;27.08;;;10.98;;
29728;SDS011;20055;51.498;11.960;2023-09-12T00:12:00;21.90;;;8.38;;
29728;SDS011;20055;51.498;11.960;2023-09-12T00:14:26;25.55;;;9.77;;
29728;SDS011;20055;51.498;11.960;2023-09-12T00:16:53;18.27;;;8.32;;
29728;SDS011;20055;51.498;11.960;2023-09-12T00:19:21;17.17;;;8.23;;
29728;SDS011;20055;51.498;11.960;2023-09-12T00:21:47;19.63;;;9.25;;
29728;SDS011;20055;51.498;11.960;2023-09-12T00:24:13;26.38;;;8.07;;
29728;SDS011;20055;51.498;11.960;2023-09-12T00:26:39;20.30;;;8.95;;
29728;SDS011;20055;51.498;11.960;2023-09-12T00:29:05;26.67;;;8.95;;
29728;SDS011;20055;51.498;11.960;2023-09-12T00:31:32;20.38;;;8.05;;
29728;SDS011;20055;51.498;11.960;2023-09-12T00:33:58;20.73;;;8.50;;
29728;SDS011;20055;51.498;11.960;2023-09-12T00:36:24;17.98;;;8.50;;
29728;SDS011;20055;51.498;11.960;2023-09-12T00:38:50;23.50;;;8.95;;
29728;SDS011;20055;51.498;11.960;2023-09-12T00:41:17;22.65;;;8.68;;
29728;SDS011;20055;51.498;11.960;2023-09-12T00:43:43;19.23;;;8.68;;
29728;SDS011;20055;51.498;11.960;2023-09-12T00:46:10;20.77;;;9.10;;
29728;SDS011;20055;51.498;11.960;2023-09-12T00:48:36;15.48;;;8.65;;
29728;SDS011;20055;51.498;11.960;2023-09-12T00:51:04;21.90;;;9.02;;
29728;SDS011;20055;51.498;11.960;2023-09-12T00:53:31;26.13;;;9.15;;
29728;SDS011;20055;51.498;11.960;2023-09-12T00:55:58;26.30;;;9.45;;
29728;SDS011;20055;51.498;11.960;2023-09-12T00:58:25;19.27;;;8.35;;
29728;SDS011;20055;51.498;11.960;2023-09-12T01:00:53;27.17;;;8.32;;
29728;SDS011;20055;51.498;11.960;2023-09-12T01:03:19;20.50;;;8.07;;
29728;SDS011;20055;51.498;11.960;2023-09-12T01:05:46;28.98;;;8.93;;
29728;SDS011;20055;51.498;11.960;2023-09-12T01:08:14;17.30;;;9.50;;
29728;SDS011;20055;51.498;11.960;2023-09-12T01:10:40;16.85;;;8.30;;
29728;SDS011;20055;51.498;11.960;2023-09-12T01:13:12;18.17;;;8.77;;
29728;SDS011;20055;51.498;11.960;2023-09-12T01:15:40;24.55;;;8.85;;
29728;SDS011;20055;51.498;11.960;2023-09-12T01:18:07;19.20;;;8.02;;
29728;SDS011;20055;51.498;11.960;2023-09-12T01:20:34;20.30;;;8.55;;
29728;SDS011;20055;51.498;11.960;2023-09-12T01:23:16;22.95;;;10.50;;
29728;SDS011;20055;51.498;11.960;2023-09-12T01:28:42;26.17;;;8.60;;
29728;SDS011;20055;51.498;11.960;2023-09-12T01:31:10;24.58;;;9.90;;
29728;SDS011;20055;51.498;11.960;2023-09-12T01:33:39;29.80;;;10.50;;
29728;SDS011;20055;51.498;11.960;2023-09-12T01:36:05;21.40;;;8.50;;
29728;SDS011;20055;51.498;11.960;2023-09-12T01:38:34;19.58;;;9.52;;
29728;SDS011;20055;51.498;11.960;2023-09-12T01:41:00;28.00;;;9.48;;
29728;SDS011;20055;51.498;11.960;2023-09-12T01:43:27;24.50;;;8.98;;
29728;SDS011;20055;51.498;11.960;2023-09-12T01:45:55;17.85;;;8.40;;
29728;SDS011;20055;51.498;11.960;2023-09-12T01:48:23;21.33;;;8.80;;
29728;SDS011;20055;51.498;11.960;2023-09-12T01:50:56;19.95;;;8.70;;
29728;SDS011;20055;51.498;11.960;2023-09-12T01:53:23;19.60;;;7.13;;
29728;SDS011;20055;51.498;11.960;2023-09-12T01:55:49;16.42;;;7.30;;
29728;SDS011;20055;51.498;11.960;2023-09-12T01:58:15;23.38;;;8.80;;
29728;SDS011;20055;51.498;11.960;2023-09-12T02:00:42;21.10;;;8.63;;
29728;SDS011;20055;51.498;11.960;2023-09-12T02:03:08;29.20;;;9.27;;
29728;SDS011;20055;51.498;11.960;2023-09-12T02:05:35;25.20;;;8.93;;
29728;SDS011;20055;51.498;11.960;2023-09-12T02:08:03;18.90;;;9.02;;
29728;SDS011;20055;51.498;11.960;2023-09-12T02:10:30;25.02;;;8.93;;
29728;SDS011;20055;51.498;11.960;2023-09-12T02:12:58;26.55;;;9.10;;
29728;SDS011;20055;51.498;11.960;2023-09-12T02:15:24;19.08;;;9.23;;
29728;SDS011;20055;51.498;11.960;2023-09-12T02:17:51;23.30;;;9.45;;
29728;SDS011;20055;51.498;11.960;2023-09-12T02:20:18;23.90;;;10.18;;
29728;SDS011;20055;51.498;11.960;2023-09-12T02:22:45;18.38;;;8.60;;
29728;SDS011;20055;51.498;11.960;2023-09-12T02:25:11;34.17;;;11.50;;
29728;SDS011;20055;51.498;11.960;2023-09-12T02:27:38;31.35;;;9.05;;
29728;SDS011;20055;51.498;11.960;2023-09-12T02:30:04;17.55;;;9.25;;
29728;SDS011;20055;51.498;11.960;2023-09-12T02:32:31;27.45;;;9.35;;
29728;SDS011;20055;51.498;11.960;2023-09-12T02:34:57;29.45;;;10.02;;
29728;SDS011;20055;51.498;11.960;2023-09-12T02:37:24;20.58;;;9.45;;
29728;SDS011;20055;51.498;11.960;2023-09-12T02:39:50;25.33;;;10.07;;
29728;SDS011;20055;51.498;11.960;2023-09-12T02:42:16;34.63;;;11.27;;
29728;SDS011;20055;51.498;11.960;2023-09-12T02:44:43;31.75;;;9.90;;
29728;SDS011;20055;51.498;11.960;2023-09-12T02:47:09;20.48;;;8.93;;
29728;SDS011;20055;51.498;11.960;2023-09-12T02:49:35;24.20;;;9.23;;
29728;SDS011;20055;51.498;11.960;2023-09-12T02:52:01;18.90;;;9.55;;
29728;SDS011;20055;51.498;11.960;2023-09-12T02:54:28;26.52;;;8.70;;
29728;SDS011;20055;51.498;11.960;2023-09-12T02:56:54;22.25;;;9.60;;
29728;SDS011;20055;51.498;11.960;2023-09-12T02:59:21;21.67;;;9.60;;
29728;SDS011;20055;51.498;11.960;2023-09-12T03:01:47;23.23;;;9.25;;
29728;SDS011;20055;51.498;11.960;2023-09-12T03:04:13;20.17;;;8.57;;
29728;SDS011;20055;51.498;11.960;2023-09-12T03:06:40;19.27;;;8.43;;
29728;SDS011;20055;51.498;11.960;2023-09-12T03:09:06;30.17;;;11.43;;
29728;SDS011;20055;51.498;11.960;2023-09-12T03:11:32;25.13;;;10.13;;
29728;SDS011;20055;51.498;11.960;2023-09-12T03:13:58;22.10;;;9.88;;
29728;SDS011;20055;51.498;11.960;2023-09-12T03:16:25;23.50;;;9.00;;
29728;SDS011;20055;51.498;11.960;2023-09-12T03:18:51;22.30;;;10.25;;
29728;SDS011;20055;51.498;11.960;2023-09-12T03:21:17;19.40;;;9.10;;
29728;SDS011;20055;51.498;11.960;2023-09-12T03:23:44;30.13;;;10.18;;
29728;SDS011;20055;51.498;11.960;2023-09-12T03:26:10;27.98;;;9.60;;
29728;SDS011;20055;51.498;11.960;2023-09-12T03:28:37;33.80;;;9.73;;
29728;SDS011;20055;51.498;11.960;2023-09-12T03:31:06;25.02;;;10.70;;
29728;SDS011;20055;51.498;11.960;2023-09-12T03:33:40;25.27;;;10.18;;
29728;SDS011;20055;51.498;11.960;2023-09-12T03:36:08;25.40;;;7.32;;
29728;SDS011;20055;51.498;11.960;2023-09-12T03:38:35;24.35;;;6.47;;
29728;SDS011;20055;51.498;11.960;2023-09-12T03:41:01;14.73;;;6.63;;
29728;SDS011;20055;51.498;11.960;2023-09-12T03:43:28;13.75;;;6.88;;
29728;SDS011;20055;51.498;11.960;2023-09-12T03:45:55;17.92;;;8.23;;
29728;SDS011;20055;51.498;11.960;2023-09-12T03:48:22;18.45;;;7.95;;
29728;SDS011;20055;51.498;11.960;2023-09-12T03:50:48;24.40;;;7.35;;
29728;SDS011;20055;51.498;11.960;2023-09-12T03:53:14;19.45;;;7.20;;
29728;SDS011;20055;51.498;11.960;2023-09-12T03:55:42;21.70;;;7.07;;
29728;SDS011;20055;51.498;11.960;2023-09-12T03:58:08;16.27;;;7.10;;
29728;SDS011;20055;51.498;11.960;2023-09-12T04:00:34;21.10;;;7.50;;
29728;SDS011;20055;51.498;11.960;2023-09-12T04:03:01;22.45;;;7.63;;
29728;SDS011;20055;51.498;11.960;2023-09-12T04:05:27;19.30;;;8.15;;
29728;SDS011;20055;51.498;11.960;2023-09-12T04:07:53;17.27;;;7.60;;
29728;SDS011;20055;51.498;11.960;2023-09-12T04:10:20;21.15;;;7.85;;
29728;SDS011;20055;51.498;11.960;2023-09-12T04:12:46;21.40;;;8.52;;
29728;SDS011;20055;51.498;11.960;2023-09-12T04:15:13;24.10;;;7.93;;
29728;SDS011;20055;51.498;11.960;2023-09-12T04:17:39;18.58;;;7.72;;
29728;SDS011;20055;51.498;11.960;2023-09-12T04:20:06;21.33;;;8.45;;
29728;SDS011;20055;51.498;11.960;2023-09-12T04:22:33;26.25;;;8.82;;
29728;SDS011;20055;51.498;11.960;2023-09-12T04:24:59;25.45;;;9.35;;
29728;SDS011;20055;51.498;11.960;2023-09-12T04:27:26;27.92;;;8.35;;
29728;SDS011;20055;51.498;11.960;2023-09-12T04:29:53;28.05;;;9.65;;
29728;SDS011;20055;51.498;11.960;2023-09-12T04:32:19;36.45;;;10.35;;
29728;SDS011;20055;51.498;11.960;2023-09-12T04:34:49;36.47;;;9.30;;
29728;SDS011;20055;51.498;11.960;2023-09-12T04:37:16;26.35;;;10.70;;
29728;SDS011;20055;51.498;11.960;2023-09-12T04:39:43;32.63;;;10.10;;
29728;SDS011;20055;51.498;11.960;2023-09-12T04:42:10;34.45;;;11.40;;
29728;SDS011;20055;51.498;11.960;2023-09-12T04:44:38;29.70;;;9.63;;
29728;SDS011;20055;51.498;11.960;2023-09-12T04:47:06;29.35;;;9.88;;
29728;SDS011;20055;51.498;11.960;2023-09-12T04:49:32;29.60;;;11.15;;
29728;SDS011;20055;51.498;11.960;2023-09-12T04:51:58;33.80;;;11.35;;
29728;SDS011;20055;51.498;11.960;2023-09-12T04:54:25;25.00;;;9.88;;
29728;SDS011;20055;51.498;11.960;2023-09-12T04:56:51;29.05;;;10.43;;
29728;SDS011;20055;51.498;11.960;2023-09-12T04:59:18;31.52;;;10.98;;
29728;SDS011;20055;51.498;11.960;2023-09-12T05:01:45;22.45;;;10.05;;
29728;SDS011;20055;51.498;11.960;2023-09-12T05:04:11;22.70;;;9.68;;
29728;SDS011;20055;51.498;11.960;2023-09-12T05:06:38;25.73;;;10.05;;
29728;SDS011;20055;51.498;11.960;2023-09-12T05:09:06;26.60;;;10.30;;
29728;SDS011;20055;51.498;11.960;2023-09-12T05:11:34;27.67;;;10.02;;
29728;SDS011;20055;51.498;11.960;2023-09-12T05:14:01;23.52;;;9.75;;
29728;SDS011;20055;51.498;11.960;2023-09-12T05:16:29;29.83;;;10.35;;
29728;SDS011;20055;51.498;11.960;2023-09-12T05:18:55;36.90;;;11.48;;
29728;SDS011;20055;51.498;11.960;2023-09-12T05:21:22;44.60;;;11.52;;
29728;SDS011;20055;51.498;11.960;2023-09-12T05:23:48;35.05;;;11.20;;
29728;SDS011;20055;51.498;11.960;2023-09-12T05:26:14;36.13;;;11.60;;
29728;SDS011;20055;51.498;11.960;2023-09-12T05:28:41;44.50;;;12.35;;
29728;SDS011;20055;51.498;11.960;2023-09-12T05:31:07;39.97;;;11.30;;
29728;SDS011;20055;51.498;11.960;2023-09-12T05:33:35;31.05;;;11.60;;
29728;SDS011;20055;51.498;11.960;2023-09-12T05:36:01;29.92;;;10.45;;
29728;SDS011;20055;51.498;11.960;2023-09-12T05:38:28;37.50;;;17.20;;
29728;SDS011;20055;51.498;11.960;2023-09-12T05:40:55;40.30;;;10.80;;
29728;SDS011;20055;51.498;11.960;2023-09-12T05:43:22;26.83;;;9.95;;
29728;SDS011;20055;51.498;11.960;2023-09-12T05:45:48;31.85;;;13.13;;
29728;SDS011;20055;51.498;11.960;2023-09-12T05:48:15;26.92;;;10.07;;
29728;SDS011;20055;51.498;11.960;2023-09-12T05:50:41;31.60;;;11.20;;
29728;SDS011;20055;51.498;11.960;2023-09-12T05:53:08;26.10;;;9.70;;
29728;SDS011;20055;51.498;11.960;2023-09-12T05:55:34;29.50;;;10.43;;
29728;SDS011;20055;51.498;11.960;2023-09-12T05:58:01;20.08;;;10.15;;
29728;SDS011;20055;51.498;11.960;2023-09-12T06:00:31;29.13;;;10.38;;
29728;SDS011;20055;51.498;11.960;2023-09-12T06:02:58;41.28;;;10.70;;
29728;SDS011;20055;51.498;11.960;2023-09-12T06:05:24;37.88;;;10.07;;
29728;SDS011;20055;51.498;11.960;2023-09-12T06:07:50;29.63;;;10.35;;
29728;SDS011;20055;51.498;11.960;2023-09-12T06:10:17;28.38;;;10.23;;
29728;SDS011;20055;51.498;11.960;2023-09-12T06:12:43;30.75;;;10.88;;
29728;SDS011;20055;51.498;11.960;2023-09-12T06:15:09;30.58;;;11.55;;
29728;SDS011;20055;51.498;11.960;2023-09-12T06:17:36;32.53;;;11.27;;
29728;SDS011;20055;51.498;11.960;2023-09-12T06:20:02;25.63;;;10.38;;
29728;SDS011;20055;51.498;11.960;2023-09-12T06:22:32;26.38;;;10.27;;
29728;SDS011;20055;51.498;11.960;2023-09-12T06:24:58;27.77;;;10.32;;
29728;SDS011;20055;51.498;11.960;2023-09-12T06:27:24;20.42;;;9.20;;
29728;SDS011;20055;51.498;11.960;2023-09-12T06:29:50;36.65;;;10.60;;
29728;SDS011;20055;51.498;11.960;2023-09-12T06:32:17;22.80;;;10.60;;
29728;SDS011;20055;51.498;11.960;2023-09-12T06:34:43;25.38;;;9.38;;
29728;SDS011;20055;51.498;11.960;2023-09-12T06:37:10;20.85;;;10.40;;
29728;SDS011;20055;51.498;11.960;2023-09-12T06:39:37;29.80;;;10.35;;
29728;SDS011;20055;51.498;11.960;2023-09-12T06:42:03;30.95;;;10.80;;
29728;SDS011;20055;51.498;11.960;2023-09-12T06:44:30;34.40;;;11.13;;
29728;SDS011;20055;51.498;11.960;2023-09-12T06:46:56;34.65;;;11.02;;
29728;SDS011;20055;51.498;11.960;2023-09-12T06:49:22;38.50;;;10.65;;
29728;SDS011;20055;51.498;11.960;2023-09-12T06:51:48;27.60;;;9.63;;
29728;SDS011;20055;51.498;11.960;2023-09-12T06:54:14;35.92;;;9.85;;
29728;SDS011;20055;51.498;11.960;2023-09-12T06:56:41;30.67;;;10.18;;
29728;SDS011;20055;51.498;11.960;2023-09-12T06:59:08;30.48;;;10.85;;
29728;SDS011;20055;51.498;11.960;2023-09-12T07:01:34;35.80;;;10.65;;
29728;SDS011;20055;51.498;11.960;2023-09-12T07:04:01;40.17;;;11.95;;
29728;SDS011;20055;51.498;11.960;2023-09-12T07:06:28;31.98;;;11.95;;
29728;SDS011;20055;51.498;11.960;2023-09-12T07:08:55;37.83;;;11.98;;
29728;SDS011;20055;51.498;11.960;2023-09-12T07:11:21;41.83;;;12.75;;
29728;SDS011;20055;51.498;11.960;2023-09-12T07:13:49;37.97;;;12.75;;
29728;SDS011;20055;51.498;11.960;2023-09-12T07:16:16;27.05;;;12.38;;
29728;SDS011;20055;51.498;11.960;2023-09-12T07:18:42;38.85;;;11.98;;
29728;SDS011;20055;51.498;11.960;2023-09-12T07:21:09;32.72;;;13.00;;
29728;SDS011;20055;51.498;11.960;2023-09-12T07:23:36;36.20;;;13.50;;
29728;SDS011;20055;51.498;11.960;2023-09-12T07:26:03;35.13;;;13.70;;
29728;SDS011;20055;51.498;11.960;2023-09-12T07:28:30;32.88;;;12.63;;
29728;SDS011;20055;51.498;11.960;2023-09-12T07:30:56;28.92;;;12.93;;
29728;SDS011;20055;51.498;11.960;2023-09-12T07:33:23;36.55;;;12.10;;
29728;SDS011;20055;51.498;11.960;2023-09-12T07:35:51;44.58;;;13.43;;
29728;SDS011;20055;51.498;11.960;2023-09-12T07:38:20;29.20;;;13.52;;
29728;SDS011;20055;51.498;11.960;2023-09-12T07:40:47;31.95;;;13.18;;
29728;SDS011;20055;51.498;11.960;2023-09-12T07:43:13;38.92;;;14.32;;
29728;SDS011;20055;51.498;11.960;2023-09-12T07:45:39;29.92;;;13.65;;
29728;SDS011;20055;51.498;11.960;2023-09-12T07:48:06;33.45;;;14.05;;
29728;SDS011;20055;51.498;11.960;2023-09-12T07:50:33;38.40;;;15.75;;
29728;SDS011;20055;51.498;11.960;2023-09-12T07:53:00;40.40;;;16.15;;
29728;SDS011;20055;51.498;11.960;2023-09-12T07:55:26;32.60;;;15.73;;
29728;SDS011;20055;51.498;11.960;2023-09-12T07:57:56;56.97;;;17.25;;
29728;SDS011;20055;51.498;11.960;2023-09-12T08:00:23;32.92;;;14.98;;
29728;SDS011;20055;51.498;11.960;2023-09-12T08:02:49;33.85;;;16.80;;
29728;SDS011;20055;51.498;11.960;2023-09-12T08:05:16;37.30;;;16.40;;
29728;SDS011;20055;51.498;11.960;2023-09-12T08:07:42;40.85;;;15.57;;
29728;SDS011;20055;51.498;11.960;2023-09-12T08:10:08;35.75;;;14.75;;
29728;SDS011;20055;51.498;11.960;2023-09-12T08:12:35;38.38;;;16.58;;
29728;SDS011;20055;51.498;11.960;2023-09-12T08:15:04;36.58;;;16.40;;
29728;SDS011;20055;51.498;11.960;2023-09-12T08:17:31;36.53;;;16.85;;
29728;SDS011;20055;51.498;11.960;2023-09-12T08:19:58;36.17;;;17.00;;
29728;SDS011;20055;51.498;11.960;2023-09-12T08:22:24;31.10;;;15.52;;
29728;SDS011;20055;51.498;11.960;2023-09-12T08:24:50;45.38;;;15.40;;
29728;SDS011;20055;51.498;11.960;2023-09-12T08:27:16;31.45;;;15.77;;
29728;SDS011;20055;51.498;11.960;2023-09-12T08:29:43;34.72;;;15.18;;
29728;SDS011;20055;51.498;11.960;2023-09-12T08:32:10;33.22;;;16.77;;
29728;SDS011;20055;51.498;11.960;2023-09-12T08:34:36;32.30;;;16.05;;
29728;SDS011;20055;51.498;11.960;2023-09-12T08:37:02;32.67;;;16.10;;
29728;SDS011;20055;51.498;11.960;2023-09-12T08:39:39;41.33;;;16.15;;
29728;SDS011;20055;51.498;11.960;2023-09-12T08:42:07;34.85;;;14.95;;
29728;SDS011;20055;51.498;11.960;2023-09-12T08:44:41;43.30;;;14.68;;
29728;SDS011;20055;51.498;11.960;2023-09-12T08:47:08;41.47;;;13.85;;
29728;SDS011;20055;51.498;11.960;2023-09-12T08:49:36;46.30;;;13.27;;
29728;SDS011;20055;51.498;11.960;2023-09-12T08:52:06;39.08;;;13.57;;
29728;SDS011;20055;51.498;11.960;2023-09-12T08:54:32;35.60;;;13.57;;
29728;SDS011;20055;51.498;11.960;2023-09-12T08:57:00;42.15;;;14.30;;
29728;SDS011;20055;51.498;11.960;2023-09-12T08:59:29;40.15;;;11.93;;
29728;SDS011;20055;51.498;11.960;2023-09-12T09:02:03;32.33;;;12.77;;
29728;SDS011;20055;51.498;11.960;2023-09-12T09:04:33;34.90;;;13.35;;
29728;SDS011;20055;51.498;11.960;2023-09-12T09:07:01;36.03;;;12.50;;
29728;SDS011;20055;51.498;11.960;2023-09-12T09:09:29;28.05;;;11.98;;
29728;SDS011;20055;51.498;11.960;2023-09-12T09:11:56;30.95;;;12.57;;
29728;SDS011;20055;51.498;11.960;2023-09-12T09:14:23;33.60;;;11.18;;
29728;SDS011;20055;51.498;11.960;2023-09-12T09:16:49;28.83;;;11.77;;
29728;SDS011;20055;51.498;11.960;2023-09-12T09:19:16;37.63;;;10.27;;
29728;SDS011;20055;51.498;11.960;2023-09-12T09:21:44;28.42;;;9.50;;
29728;SDS011;20055;51.498;11.960;2023-09-12T09:24:12;30.58;;;9.40;;
29728;SDS011;20055;51.498;11.960;2023-09-12T09:26:48;22.50;;;8.82;;
29728;SDS011;20055;51.498;11.960;2023-09-12T09:29:16;25.33;;;9.38;;
29728;SDS011;20055;51.498;11.960;2023-09-12T09:31:45;19.42;;;8.32;;
29728;SDS011;20055;51.498;11.960;2023-09-12T09:34:19;15.20;;;6.18;;
29728;SDS011;20055;51.498;11.960;2023-09-12T09:36:48;17.77;;;6.05;;
29728;SDS011;20055;51.498;11.960;2023-09-12T09:39:16;35.15;;;6.95;;
29728;SDS011;20055;51.498;11.960;2023-09-12T09:41:48;17.77;;;5.78;;
29728;SDS011;20055;51.498;11.960;2023-09-12T09:44:15;15.85;;;6.05;;
29728;SDS011;20055;51.498;11.960;2023-09-12T09:46:45;13.02;;;4.40;;
29728;SDS011;20055;51.498;11.960;2023-09-12T09:49:15;16.50;;;5.10;;
29728;SDS011;20055;51.498;11.960;2023-09-12T09:51:45;16.23;;;4.90;;
29728;SDS011;20055;51.498;11.960;2023-09-12T09:54:11;21.58;;;6.00;;
29728;SDS011;20055;51.498;11.960;2023-09-12T09:56:48;14.70;;;4.88;;
29728;SDS011;20055;51.498;11.960;2023-09-12T09:59:20;13.93;;;5.30;;
29728;SDS011;20055;51.498;11.960;2023-09-12T10:01:49;17.75;;;5.53;;
29728;SDS011;20055;51.498;11.960;2023-09-12T10:04:19;15.35;;;5.43;;
29728;SDS011;20055;51.498;11.960;2023-09-12T10:06:46;15.35;;;5.65;;
29728;SDS011;20055;51.498;11.960;2023-09-12T10:09:13;21.65;;;6.10;;
29728;SDS011;20055;51.498;11.960;2023-09-12T10:11:40;20.55;;;6.22;;
29728;SDS011;20055;51.498;11.960;2023-09-12T10:14:08;14.82;;;5.25;;
29728;SDS011;20055;51.498;11.960;2023-09-12T10:16:36;30.75;;;6.63;;
29728;SDS011;20055;51.498;11.960;2023-09-12T10:19:11;15.95;;;5.38;;
29728;SDS011;20055;51.498;11.960;2023-09-12T10:21:49;15.70;;;5.50;;
29728;SDS011;20055;51.498;11.960;2023-09-12T10:24:35;11.27;;;4.85;;
29728;SDS011;20055;51.498;11.960;2023-09-12T10:27:02;12.60;;;5.75;;
29728;SDS011;20055;51.498;11.960;2023-09-12T10:29:30;18.88;;;6.10;;
29728;SDS011;20055;51.498;11.960;2023-09-12T10:31:57;14.70;;;5.65;;
29728;SDS011;20055;51.498;11.960;2023-09-12T10:34:27;16.52;;;4.88;;
29728;SDS011;20055;51.498;11.960;2023-09-12T10:36:55;15.75;;;5.57;;
29728;SDS011;20055;51.498;11.960;2023-09-12T10:39:30;19.00;;;5.93;;
29728;SDS011;20055;51.498;11.960;2023-09-12T10:41:58;18.52;;;5.60;;
29728;SDS011;20055;51.498;11.960;2023-09-12T10:44:24;12.43;;;5.53;;
29728;SDS011;20055;51.498;11.960;2023-09-12T10:46:51;16.42;;;5.78;;
29728;SDS011;20055;51.498;11.960;2023-09-12T10:49:22;11.25;;;5.75;;
29728;SDS011;20055;51.498;11.960;2023-09-12T10:51:49;20.20;;;5.65;;
29728;SDS011;20055;51.498;11.960;2023-09-12T10:54:16;11.95;;;5.45;;
29728;SDS011;20055;51.498;11.960;2023-09-12T10:57:04;10.75;;;5.57;;
29728;SDS011;20055;51.498;11.960;2023-09-12T10:59:32;20.17;;;6.82;;
29728;SDS011;20055;51.498;11.960;2023-09-12T11:02:44;16.90;;;5.55;;
29728;SDS011;20055;51.498;11.960;2023-09-12T11:05:04;19.25;;;5.68;;
29728;SDS011;20055;51.498;11.960;2023-09-12T11:12:40;17.45;;;5.90;;
29728;SDS011;20055;51.498;11.960;2023-09-12T11:15:08;18.85;;;5.25;;
29728;SDS011;20055;51.498;11.960;2023-09-12T11:17:39;14.07;;;5.55;;
29728;SDS011;20055;51.498;11.960;2023-09-12T11:22:39;21.92;;;6.00;;
29728;SDS011;20055;51.498;11.960;2023-09-12T11:25:20;17.95;;;5.30;;
29728;SDS011;20055;51.498;11.960;2023-09-12T11:30:21;18.63;;;5.05;;
29728;SDS011;20055;51.498;11.960;2023-09-12T11:32:49;12.18;;;5.47;;
29728;SDS011;20055;51.498;11.960;2023-09-12T11:35:21;14.43;;;5.35;;
29728;SDS011;20055;51.498;11.960;2023-09-12T11:37:56;19.73;;;5.20;;
29728;SDS011;20055;51.498;11.960;2023-09-12T11:42:49;15.65;;;4.50;;
29728;SDS011;20055;51.498;11.960;2023-09-12T11:45:19;16.20;;;4.70;;
29728;SDS011;20055;51.498;11.960;2023-09-12T11:47:47;18.45;;;4.88;;
29728;SDS011;20055;51.498;11.960;2023-09-12T11:50:30;14.40;;;4.75;;
29728;SDS011;20055;51.498;11.960;2023-09-12T11:53:05;18.92;;;5.38;;
29728;SDS011;20055;51.498;11.960;2023-09-12T11:55:33;28.98;;;6.35;;
29728;SDS011;20055;51.498;11.960;2023-09-12T11:58:02;16.33;;;5.32;;
29728;SDS011;20055;51.498;11.960;2023-09-12T12:00:29;16.67;;;5.55;;
29728;SDS011;20055;51.498;11.960;2023-09-12T12:02:55;26.17;;;5.47;;
29728;SDS011;20055;51.498;11.960;2023-09-12T12:05:23;21.33;;;5.63;;
29728;SDS011;20055;51.498;11.960;2023-09-12T12:07:49;14.18;;;5.10;;
29728;SDS011;20055;51.498;11.960;2023-09-12T12:10:16;22.40;;;6.18;;
29728;SDS011;20055;51.498;11.960;2023-09-12T12:12:46;19.80;;;4.95;;
29728;SDS011;20055;51.498;11.960;2023-09-12T12:15:12;19.02;;;5.13;;
29728;SDS011;20055;51.498;11.960;2023-09-12T12:17:42;14.70;;;5.63;;
29728;SDS011;20055;51.498;11.960;2023-09-12T12:20:09;12.35;;;5.75;;
29728;SDS011;20055;51.498;11.960;2023-09-12T12:22:39;14.15;;;5.45;;
29728;SDS011;20055;51.498;11.960;2023-09-12T12:25:07;11.82;;;5.07;;
29728;SDS011;20055;51.498;11.960;2023-09-12T12:27:37;16.88;;;5.47;;
29728;SDS011;20055;51.498;11.960;2023-09-12T12:30:08;25.15;;;5.22;;
29728;SDS011;20055;51.498;11.960;2023-09-12T12:32:46;21.23;;;5.63;;
29728;SDS011;20055;51.498;11.960;2023-09-12T12:35:19;18.50;;;5.60;;
29728;SDS011;20055;51.498;11.960;2023-09-12T12:37:50;19.88;;;5.53;;
29728;SDS011;20055;51.498;11.960;2023-09-12T12:40:17;13.88;;;6.00;;
29728;SDS011;20055;51.498;11.960;2023-09-12T12:42:44;20.40;;;6.13;;
29728;SDS011;20055;51.498;11.960;2023-09-12T12:45:12;14.30;;;6.38;;
29728;SDS011;20055;51.498;11.960;2023-09-12T12:47:44;19.90;;;5.30;;
29728;SDS011;20055;51.498;11.960;2023-09-12T12:50:14;19.00;;;5.63;;
29728;SDS011;20055;51.498;11.960;2023-09-12T12:52:42;20.67;;;5.20;;
29728;SDS011;20055;51.498;11.960;2023-09-12T12:55:12;24.15;;;5.80;;
29728;SDS011;20055;51.498;11.960;2023-09-12T12:57:41;20.42;;;5.90;;
29728;SDS011;20055;51.498;11.960;2023-09-12T13:00:09;15.57;;;5.47;;
29728;SDS011;20055;51.498;11.960;2023-09-12T13:02:37;9.48;;;5.03;;
29728;SDS011;20055;51.498;11.960;2023-09-12T13:05:05;23.52;;;5.47;;
29728;SDS011;20055;51.498;11.960;2023-09-12T13:07:44;20.23;;;5.63;;
29728;SDS011;20055;51.498;11.960;2023-09-12T13:10:11;12.98;;;4.78;;
29728;SDS011;20055;51.498;11.960;2023-09-12T13:12:37;21.02;;;5.18;;
29728;SDS011;20055;51.498;11.960;2023-09-12T13:15:04;19.30;;;5.03;;
29728;SDS011;20055;51.498;11.960;2023-09-12T13:17:30;20.35;;;5.55;;
29728;SDS011;20055;51.498;11.960;2023-09-12T13:19:56;19.27;;;6.13;;
29728;SDS011;20055;51.498;11.960;2023-09-12T13:22:23;11.75;;;5.40;;
29728;SDS011;20055;51.498;11.960;2023-09-12T13:24:49;18.85;;;6.28;;
29728;SDS011;20055;51.498;11.960;2023-09-12T13:27:15;16.70;;;5.45;;
29728;SDS011;20055;51.498;11.960;2023-09-12T13:29:41;21.15;;;5.95;;
29728;SDS011;20055;51.498;11.960;2023-09-12T13:32:07;26.10;;;6.07;;
29728;SDS011;20055;51.498;11.960;2023-09-12T13:34:35;17.25;;;5.80;;
29728;SDS011;20055;51.498;11.960;2023-09-12T13:37:02;15.93;;;5.18;;
29728;SDS011;20055;51.498;11.960;2023-09-12T13:39:28;16.35;;;5.20;;
29728;SDS011;20055;51.498;11.960;2023-09-12T13:41:54;19.65;;;5.63;;
29728;SDS011;20055;51.498;11.960;2023-09-12T13:44:23;19.50;;;5.65;;
29728;SDS011;20055;51.498;11.960;2023-09-12T13:46:49;26.88;;;6.20;;
29728;SDS011;20055;51.498;11.960;2023-09-12T13:49:16;22.23;;;6.25;;
29728;SDS011;20055;51.498;11.960;2023-09-12T13:51:42;16.92;;;5.65;;
29728;SDS011;20055;51.498;11.960;2023-09-12T13:54:08;26.42;;;7.00;;
29728;SDS011;20055;51.498;11.960;2023-09-12T13:56:40;18.20;;;7.38;;
29728;SDS011;20055;51.498;11.960;2023-09-12T13:59:07;27.00;;;6.68;;
29728;SDS011;20055;51.498;11.960;2023-09-12T14:01:33;14.43;;;6.03;;
29728;SDS011;20055;51.498;11.960;2023-09-12T14:04:00;22.50;;;5.82;;
29728;SDS011;20055;51.498;11.960;2023-09-12T14:06:26;21.83;;;6.00;;
29728;SDS011;20055;51.498;11.960;2023-09-12T14:08:53;17.33;;;6.43;;
29728;SDS011;20055;51.498;11.960;2023-09-12T14:11:19;20.98;;;6.15;;
29728;SDS011;20055;51.498;11.960;2023-09-12T14:13:45;25.08;;;7.22;;
29728;SDS011;20055;51.498;11.960;2023-09-12T14:16:12;18.42;;;5.95;;
29728;SDS011;20055;51.498;11.960;2023-09-12T14:18:38;19.83;;;5.60;;
29728;SDS011;20055;51.498;11.960;2023-09-12T14:21:04;17.23;;;6.30;;
29728;SDS011;20055;51.498;11.960;2023-09-12T14:23:30;14.23;;;5.07;;
29728;SDS011;20055;51.498;11.960;2023-09-12T14:25:56;17.50;;;5.75;;
29728;SDS011;20055;51.498;11.960;2023-09-12T14:28:23;20.63;;;5.93;;
29728;SDS011;20055;51.498;11.960;2023-09-12T14:30:49;13.30;;;5.45;;
29728;SDS011;20055;51.498;11.960;2023-09-12T14:33:15;15.48;;;5.85;;
29728;SDS011;20055;51.498;11.960;2023-09-12T14:35:44;15.95;;;5.53;;